sensor_id;sensor_type;location;lat;lon;timestamp;temperature;humidity
12602;DHT22;30282;16.436;99.370;2022-12-08T00:01:25;23.90;99.90
12602;DHT22;30282;16.436;99.370;2022-12-08T00:03:54;23.90;99.90
12602;DHT22;30282;16.436;99.370;2022-12-08T00:06:28;23.90;99.90
12602;DHT22;30282;16.436;99.370;2022-12-08T00:09:17;23.90;99.90
12602;DHT22;30282;16.436;99.370;2022-12-08T00:11:50;23.90;99.90
12602;DHT22;30282;16.436;99.370;2022-12-08T00:14:21;23.90;99.90
12602;DHT22;30282;16.436;99.370;2022-12-08T00:16:52;23.90;99.90
12602;DHT22;30282;16.436;99.370;2022-12-08T00:19:22;23.90;99.90
12602;DHT22;30282;16.436;99.370;2022-12-08T00:21:52;23.90;99.90
12602;DHT22;30282;16.436;99.370;2022-12-08T00:24:21;23.90;99.90
12602;DHT22;30282;16.436;99.370;2022-12-08T00:26:50;24.00;99.90
12602;DHT22;30282;16.436;99.370;2022-12-08T00:29:20;24.00;99.90
12602;DHT22;30282;16.436;99.370;2022-12-08T00:32:00;24.00;99.90
12602;DHT22;30282;16.436;99.370;2022-12-08T00:34:30;24.10;99.90
12602;DHT22;30282;16.436;99.370;2022-12-08T00:37:00;24.20;99.90
12602;DHT22;30282;16.436;99.370;2022-12-08T00:39:29;24.20;99.90
12602;DHT22;30282;16.436;99.370;2022-12-08T00:41:57;24.20;99.90
12602;DHT22;30282;16.436;99.370;2022-12-08T00:44:43;24.20;99.90
12602;DHT22;30282;16.436;99.370;2022-12-08T00:47:14;24.30;99.90
12602;DHT22;30282;16.436;99.370;2022-12-08T00:49:43;24.30;99.90
12602;DHT22;30282;16.436;99.370;2022-12-08T00:52:13;24.40;99.90
12602;DHT22;30282;16.436;99.370;2022-12-08T00:54:42;24.40;99.90
12602;DHT22;30282;16.436;99.370;2022-12-08T00:57:11;24.50;99.90
12602;DHT22;30282;16.436;99.370;2022-12-08T00:59:40;24.50;99.90
12602;DHT22;30282;16.436;99.370;2022-12-08T01:02:09;24.60;99.90
12602;DHT22;30282;16.436;99.370;2022-12-08T01:04:40;24.70;99.90
12602;DHT22;30282;16.436;99.370;2022-12-08T01:07:09;24.70;99.90
12602;DHT22;30282;16.436;99.370;2022-12-08T01:09:38;24.80;99.90
12602;DHT22;30282;16.436;99.370;2022-12-08T01:12:07;24.80;99.90
12602;DHT22;30282;16.436;99.370;2022-12-08T01:14:37;24.90;99.90
12602;DHT22;30282;16.436;99.370;2022-12-08T01:17:06;25.00;99.90
12602;DHT22;30282;16.436;99.370;2022-12-08T01:19:36;25.10;99.90
12602;DHT22;30282;16.436;99.370;2022-12-08T01:22:06;25.10;99.90
12602;DHT22;30282;16.436;99.370;2022-12-08T01:24:35;25.20;99.90
12602;DHT22;30282;16.436;99.370;2022-12-08T01:27:04;25.20;99.90
12602;DHT22;30282;16.436;99.370;2022-12-08T01:29:33;25.20;99.90
12602;DHT22;30282;16.436;99.370;2022-12-08T01:32:02;25.20;99.90
12602;DHT22;30282;16.436;99.370;2022-12-08T01:34:32;25.20;99.90
12602;DHT22;30282;16.436;99.370;2022-12-08T01:37:01;25.30;99.90
12602;DHT22;30282;16.436;99.370;2022-12-08T01:39:31;25.30;99.90
12602;DHT22;30282;16.436;99.370;2022-12-08T01:42:00;25.40;99.90
12602;DHT22;30282;16.436;99.370;2022-12-08T01:44:57;25.50;99.90
12602;DHT22;30282;16.436;99.370;2022-12-08T01:47:30;25.50;99.90
12602;DHT22;30282;16.436;99.370;2022-12-08T01:50:00;25.50;99.90
12602;DHT22;30282;16.436;99.370;2022-12-08T01:52:34;25.50;99.90
12602;DHT22;30282;16.436;99.370;2022-12-08T01:55:10;25.70;99.90
12602;DHT22;30282;16.436;99.370;2022-12-08T01:57:42;25.70;99.90
12602;DHT22;30282;16.436;99.370;2022-12-08T02:00:13;25.70;99.90
12602;DHT22;30282;16.436;99.370;2022-12-08T02:02:50;25.70;99.90
12602;DHT22;30282;16.436;99.370;2022-12-08T02:05:22;25.70;99.90
12602;DHT22;30282;16.436;99.370;2022-12-08T02:07:52;25.80;99.90
12602;DHT22;30282;16.436;99.370;2022-12-08T02:10:26;25.80;99.90
12602;DHT22;30282;16.436;99.370;2022-12-08T02:12:56;25.90;99.90
12602;DHT22;30282;16.436;99.370;2022-12-08T02:15:32;25.90;99.90
12602;DHT22;30282;16.436;99.370;2022-12-08T02:18:15;25.90;99.90
12602;DHT22;30282;16.436;99.370;2022-12-08T02:20:55;26.00;99.90
12602;DHT22;30282;16.436;99.370;2022-12-08T02:23:32;26.00;99.90
12602;DHT22;30282;16.436;99.370;2022-12-08T02:29:48;26.20;99.90
12602;DHT22;30282;16.436;99.370;2022-12-08T02:32:39;26.30;99.90
12602;DHT22;30282;16.436;99.370;2022-12-08T02:35:15;26.40;99.90
12602;DHT22;30282;16.436;99.370;2022-12-08T02:37:58;26.50;99.90
12602;DHT22;30282;16.436;99.370;2022-12-08T02:40:32;26.60;99.90
12602;DHT22;30282;16.436;99.370;2022-12-08T02:43:08;26.60;99.90
12602;DHT22;30282;16.436;99.370;2022-12-08T02:45:43;26.70;99.90
12602;DHT22;30282;16.436;99.370;2022-12-08T02:48:15;26.70;99.90
12602;DHT22;30282;16.436;99.370;2022-12-08T02:50:46;26.70;99.90
12602;DHT22;30282;16.436;99.370;2022-12-08T02:53:15;26.70;99.90
12602;DHT22;30282;16.436;99.370;2022-12-08T02:55:50;26.80;99.90
12602;DHT22;30282;16.436;99.370;2022-12-08T03:01:25;27.00;99.90
12602;DHT22;30282;16.436;99.370;2022-12-08T03:04:03;27.00;99.90
12602;DHT22;30282;16.436;99.370;2022-12-08T03:06:44;27.10;99.90
12602;DHT22;30282;16.436;99.370;2022-12-08T03:09:19;27.20;99.90
12602;DHT22;30282;16.436;99.370;2022-12-08T03:11:55;27.30;99.90
12602;DHT22;30282;16.436;99.370;2022-12-08T03:14:27;27.40;99.90
12602;DHT22;30282;16.436;99.370;2022-12-08T03:16:57;27.50;99.90
12602;DHT22;30282;16.436;99.370;2022-12-08T03:19:31;27.50;99.90
12602;DHT22;30282;16.436;99.370;2022-12-08T03:22:04;27.60;99.90
12602;DHT22;30282;16.436;99.370;2022-12-08T03:24:37;27.70;99.90
12602;DHT22;30282;16.436;99.370;2022-12-08T03:27:08;27.80;99.90
12602;DHT22;30282;16.436;99.370;2022-12-08T03:29:37;27.80;99.90
12602;DHT22;30282;16.436;99.370;2022-12-08T03:32:11;27.90;99.90
12602;DHT22;30282;16.436;99.370;2022-12-08T03:34:44;27.90;99.90
12602;DHT22;30282;16.436;99.370;2022-12-08T03:37:16;28.00;99.90
12602;DHT22;30282;16.436;99.370;2022-12-08T03:39:49;28.00;99.90
12602;DHT22;30282;16.436;99.370;2022-12-08T03:42:18;28.00;99.90
12602;DHT22;30282;16.436;99.370;2022-12-08T03:44:47;27.90;99.90
12602;DHT22;30282;16.436;99.370;2022-12-08T03:47:17;27.90;99.90
12602;DHT22;30282;16.436;99.370;2022-12-08T03:49:46;27.80;99.90
12602;DHT22;30282;16.436;99.370;2022-12-08T03:52:16;27.90;99.90
12602;DHT22;30282;16.436;99.370;2022-12-08T03:54:45;27.90;99.90
12602;DHT22;30282;16.436;99.370;2022-12-08T03:57:14;27.90;99.90
12602;DHT22;30282;16.436;99.370;2022-12-08T03:59:43;28.10;99.90
12602;DHT22;30282;16.436;99.370;2022-12-08T04:02:12;28.20;99.90
12602;DHT22;30282;16.436;99.370;2022-12-08T04:04:41;28.40;99.90
12602;DHT22;30282;16.436;99.370;2022-12-08T04:07:10;28.50;99.90
12602;DHT22;30282;16.436;99.370;2022-12-08T04:09:40;28.70;99.90
12602;DHT22;30282;16.436;99.370;2022-12-08T04:12:10;28.80;99.90
12602;DHT22;30282;16.436;99.370;2022-12-08T04:14:39;28.90;99.90
12602;DHT22;30282;16.436;99.370;2022-12-08T04:17:08;29.00;99.90
12602;DHT22;30282;16.436;99.370;2022-12-08T04:19:37;29.20;99.90
12602;DHT22;30282;16.436;99.370;2022-12-08T04:22:07;29.20;99.90
12602;DHT22;30282;16.436;99.370;2022-12-08T04:24:36;29.20;99.90
12602;DHT22;30282;16.436;99.370;2022-12-08T04:27:06;29.30;99.90
12602;DHT22;30282;16.436;99.370;2022-12-08T04:29:35;29.30;99.90
12602;DHT22;30282;16.436;99.370;2022-12-08T04:32:04;29.20;99.90
12602;DHT22;30282;16.436;99.370;2022-12-08T04:34:33;29.10;99.90
12602;DHT22;30282;16.436;99.370;2022-12-08T04:37:03;29.00;99.90
12602;DHT22;30282;16.436;99.370;2022-12-08T04:39:32;28.90;99.90
12602;DHT22;30282;16.436;99.370;2022-12-08T04:42:01;28.80;99.90
12602;DHT22;30282;16.436;99.370;2022-12-08T04:44:32;28.70;99.90
12602;DHT22;30282;16.436;99.370;2022-12-08T04:47:01;28.70;99.90
12602;DHT22;30282;16.436;99.370;2022-12-08T04:49:30;28.80;99.90
12602;DHT22;30282;16.436;99.370;2022-12-08T04:51:59;29.10;99.90
12602;DHT22;30282;16.436;99.370;2022-12-08T04:54:28;29.40;99.90
12602;DHT22;30282;16.436;99.370;2022-12-08T04:56:57;29.60;99.90
12602;DHT22;30282;16.436;99.370;2022-12-08T04:59:26;29.80;99.90
12602;DHT22;30282;16.436;99.370;2022-12-08T05:01:56;29.90;99.90
12602;DHT22;30282;16.436;99.370;2022-12-08T05:04:25;29.90;99.90
12602;DHT22;30282;16.436;99.370;2022-12-08T05:06:54;29.60;99.90
12602;DHT22;30282;16.436;99.370;2022-12-08T05:09:23;29.70;99.90
12602;DHT22;30282;16.436;99.370;2022-12-08T05:11:52;29.80;99.90
12602;DHT22;30282;16.436;99.370;2022-12-08T05:14:23;29.90;99.90
12602;DHT22;30282;16.436;99.370;2022-12-08T05:16:52;30.00;99.90
12602;DHT22;30282;16.436;99.370;2022-12-08T05:19:23;30.00;99.90
12602;DHT22;30282;16.436;99.370;2022-12-08T05:21:52;29.90;99.90
12602;DHT22;30282;16.436;99.370;2022-12-08T05:24:21;29.80;99.90
12602;DHT22;30282;16.436;99.370;2022-12-08T05:26:50;29.80;99.90
12602;DHT22;30282;16.436;99.370;2022-12-08T05:29:20;29.90;99.90
12602;DHT22;30282;16.436;99.370;2022-12-08T05:31:48;29.80;99.90
12602;DHT22;30282;16.436;99.370;2022-12-08T05:34:17;29.60;99.90
12602;DHT22;30282;16.436;99.370;2022-12-08T05:36:48;29.50;99.90
12602;DHT22;30282;16.436;99.370;2022-12-08T05:39:17;29.50;99.90
12602;DHT22;30282;16.436;99.370;2022-12-08T05:41:46;29.50;99.90
12602;DHT22;30282;16.436;99.370;2022-12-08T05:44:15;29.50;99.90
12602;DHT22;30282;16.436;99.370;2022-12-08T05:46:45;29.60;99.90
12602;DHT22;30282;16.436;99.370;2022-12-08T05:49:14;29.60;99.90
12602;DHT22;30282;16.436;99.370;2022-12-08T05:51:43;29.50;99.90
12602;DHT22;30282;16.436;99.370;2022-12-08T05:54:14;29.60;99.90
12602;DHT22;30282;16.436;99.370;2022-12-08T05:56:46;29.80;99.90
12602;DHT22;30282;16.436;99.370;2022-12-08T05:59:15;29.90;99.90
12602;DHT22;30282;16.436;99.370;2022-12-08T06:01:44;29.90;99.90
12602;DHT22;30282;16.436;99.370;2022-12-08T06:04:13;30.00;99.90
12602;DHT22;30282;16.436;99.370;2022-12-08T06:06:42;29.90;99.90
12602;DHT22;30282;16.436;99.370;2022-12-08T06:09:13;29.90;99.90
12602;DHT22;30282;16.436;99.370;2022-12-08T06:11:42;29.80;99.90
12602;DHT22;30282;16.436;99.370;2022-12-08T06:14:12;29.70;99.90
12602;DHT22;30282;16.436;99.370;2022-12-08T06:16:41;29.60;99.90
12602;DHT22;30282;16.436;99.370;2022-12-08T06:19:10;29.70;99.90
12602;DHT22;30282;16.436;99.370;2022-12-08T06:21:40;29.70;99.90
12602;DHT22;30282;16.436;99.370;2022-12-08T06:24:09;29.80;99.90
12602;DHT22;30282;16.436;99.370;2022-12-08T06:26:40;29.90;99.90
12602;DHT22;30282;16.436;99.370;2022-12-08T06:29:09;29.90;99.90
12602;DHT22;30282;16.436;99.370;2022-12-08T06:31:38;29.80;99.90
12602;DHT22;30282;16.436;99.370;2022-12-08T06:34:08;29.60;99.90
12602;DHT22;30282;16.436;99.370;2022-12-08T06:36:37;29.70;99.90
12602;DHT22;30282;16.436;99.370;2022-12-08T06:39:07;29.90;99.90
12602;DHT22;30282;16.436;99.370;2022-12-08T06:41:36;30.00;99.90
12602;DHT22;30282;16.436;99.370;2022-12-08T06:44:27;30.00;99.90
12602;DHT22;30282;16.436;99.370;2022-12-08T06:46:56;30.10;99.90
12602;DHT22;30282;16.436;99.370;2022-12-08T06:49:25;30.20;99.90
12602;DHT22;30282;16.436;99.370;2022-12-08T06:51:57;30.30;99.90
12602;DHT22;30282;16.436;99.370;2022-12-08T06:54:26;30.30;99.90
12602;DHT22;30282;16.436;99.370;2022-12-08T06:56:55;30.40;99.90
12602;DHT22;30282;16.436;99.370;2022-12-08T06:59:27;30.30;99.90
12602;DHT22;30282;16.436;99.370;2022-12-08T07:01:56;30.40;99.90
12602;DHT22;30282;16.436;99.370;2022-12-08T07:04:25;30.40;99.90
12602;DHT22;30282;16.436;99.370;2022-12-08T07:06:55;30.30;99.90
12602;DHT22;30282;16.436;99.370;2022-12-08T07:09:24;30.10;99.90
12602;DHT22;30282;16.436;99.370;2022-12-08T07:11:53;30.00;99.90
12602;DHT22;30282;16.436;99.370;2022-12-08T07:14:22;30.00;99.90
12602;DHT22;30282;16.436;99.370;2022-12-08T07:16:53;30.00;99.90
12602;DHT22;30282;16.436;99.370;2022-12-08T07:19:22;30.00;99.90
12602;DHT22;30282;16.436;99.370;2022-12-08T07:21:51;30.10;99.90
12602;DHT22;30282;16.436;99.370;2022-12-08T07:24:20;30.20;99.90
12602;DHT22;30282;16.436;99.370;2022-12-08T07:26:49;30.30;99.90
12602;DHT22;30282;16.436;99.370;2022-12-08T07:29:18;30.40;99.90
12602;DHT22;30282;16.436;99.370;2022-12-08T07:31:47;30.40;99.90
12602;DHT22;30282;16.436;99.370;2022-12-08T07:34:17;30.40;99.90
12602;DHT22;30282;16.436;99.370;2022-12-08T07:36:46;30.50;99.90
12602;DHT22;30282;16.436;99.370;2022-12-08T07:39:16;30.50;99.90
12602;DHT22;30282;16.436;99.370;2022-12-08T07:41:45;30.60;99.90
12602;DHT22;30282;16.436;99.370;2022-12-08T07:44:15;30.50;99.90
12602;DHT22;30282;16.436;99.370;2022-12-08T07:46:44;30.50;99.90
12602;DHT22;30282;16.436;99.370;2022-12-08T07:49:13;30.50;99.90
12602;DHT22;30282;16.436;99.370;2022-12-08T07:51:44;30.50;99.90
12602;DHT22;30282;16.436;99.370;2022-12-08T07:54:13;30.50;99.90
12602;DHT22;30282;16.436;99.370;2022-12-08T07:56:43;30.50;99.90
12602;DHT22;30282;16.436;99.370;2022-12-08T07:59:12;30.60;99.90
12602;DHT22;30282;16.436;99.370;2022-12-08T08:01:41;30.60;99.90
12602;DHT22;30282;16.436;99.370;2022-12-08T08:04:11;30.70;99.90
12602;DHT22;30282;16.436;99.370;2022-12-08T08:06:39;30.70;99.90
12602;DHT22;30282;16.436;99.370;2022-12-08T08:09:10;30.70;99.90
12602;DHT22;30282;16.436;99.370;2022-12-08T08:11:39;30.80;99.90
12602;DHT22;30282;16.436;99.370;2022-12-08T08:14:08;30.80;99.90
12602;DHT22;30282;16.436;99.370;2022-12-08T08:16:37;30.70;99.90
12602;DHT22;30282;16.436;99.370;2022-12-08T08:19:07;30.80;99.90
12602;DHT22;30282;16.436;99.370;2022-12-08T08:21:36;30.80;99.90
12602;DHT22;30282;16.436;99.370;2022-12-08T08:24:05;30.80;99.90
12602;DHT22;30282;16.436;99.370;2022-12-08T08:26:36;30.80;99.90
12602;DHT22;30282;16.436;99.370;2022-12-08T08:29:05;30.90;99.90
12602;DHT22;30282;16.436;99.370;2022-12-08T08:31:34;30.90;99.90
12602;DHT22;30282;16.436;99.370;2022-12-08T08:34:04;30.80;99.90
12602;DHT22;30282;16.436;99.370;2022-12-08T08:36:35;30.80;99.90
12602;DHT22;30282;16.436;99.370;2022-12-08T08:39:04;30.80;99.90
12602;DHT22;30282;16.436;99.370;2022-12-08T08:41:35;30.70;99.90
12602;DHT22;30282;16.436;99.370;2022-12-08T08:44:04;30.60;99.90
12602;DHT22;30282;16.436;99.370;2022-12-08T08:46:33;30.60;99.90
12602;DHT22;30282;16.436;99.370;2022-12-08T08:49:02;30.50;99.90
12602;DHT22;30282;16.436;99.370;2022-12-08T08:51:32;30.50;99.90
12602;DHT22;30282;16.436;99.370;2022-12-08T08:54:01;30.50;99.90
12602;DHT22;30282;16.436;99.370;2022-12-08T08:56:30;30.40;99.90
12602;DHT22;30282;16.436;99.370;2022-12-08T08:59:01;30.30;99.90
12602;DHT22;30282;16.436;99.370;2022-12-08T09:01:30;30.30;99.90
12602;DHT22;30282;16.436;99.370;2022-12-08T09:04:00;30.30;99.90
12602;DHT22;30282;16.436;99.370;2022-12-08T09:06:31;30.40;99.90
12602;DHT22;30282;16.436;99.370;2022-12-08T09:09:01;30.40;99.90
12602;DHT22;30282;16.436;99.370;2022-12-08T09:11:30;30.50;99.90
12602;DHT22;30282;16.436;99.370;2022-12-08T09:14:04;30.50;99.90
12602;DHT22;30282;16.436;99.370;2022-12-08T09:16:34;30.50;99.90
12602;DHT22;30282;16.436;99.370;2022-12-08T09:19:03;30.50;99.90
12602;DHT22;30282;16.436;99.370;2022-12-08T09:21:35;30.50;99.90
12602;DHT22;30282;16.436;99.370;2022-12-08T09:24:07;30.50;99.90
12602;DHT22;30282;16.436;99.370;2022-12-08T09:26:42;30.50;99.90
12602;DHT22;30282;16.436;99.370;2022-12-08T09:29:14;30.50;99.90
12602;DHT22;30282;16.436;99.370;2022-12-08T09:31:52;30.40;99.90
12602;DHT22;30282;16.436;99.370;2022-12-08T09:34:22;30.50;99.90
12602;DHT22;30282;16.436;99.370;2022-12-08T09:36:59;30.40;99.90
12602;DHT22;30282;16.436;99.370;2022-12-08T09:39:29;30.40;99.90
12602;DHT22;30282;16.436;99.370;2022-12-08T09:42:00;30.40;99.90
12602;DHT22;30282;16.436;99.370;2022-12-08T09:44:47;30.30;99.90
12602;DHT22;30282;16.436;99.370;2022-12-08T09:47:28;30.20;99.90
12602;DHT22;30282;16.436;99.370;2022-12-08T09:50:03;30.10;99.90
12602;DHT22;30282;16.436;99.370;2022-12-08T09:52:37;30.10;99.90
12602;DHT22;30282;16.436;99.370;2022-12-08T09:55:18;30.00;99.90
12602;DHT22;30282;16.436;99.370;2022-12-08T09:57:56;30.00;99.90
12602;DHT22;30282;16.436;99.370;2022-12-08T10:00:29;29.90;99.90
12602;DHT22;30282;16.436;99.370;2022-12-08T10:02:58;29.90;99.90
12602;DHT22;30282;16.436;99.370;2022-12-08T10:05:28;29.90;99.90
12602;DHT22;30282;16.436;99.370;2022-12-08T10:08:05;29.80;99.90
12602;DHT22;30282;16.436;99.370;2022-12-08T10:10:40;29.80;99.90
12602;DHT22;30282;16.436;99.370;2022-12-08T10:13:18;29.80;99.90
12602;DHT22;30282;16.436;99.370;2022-12-08T10:15:59;29.80;99.90
12602;DHT22;30282;16.436;99.370;2022-12-08T10:18:35;29.70;99.90
12602;DHT22;30282;16.436;99.370;2022-12-08T10:21:15;29.60;99.90
12602;DHT22;30282;16.436;99.370;2022-12-08T10:23:52;29.50;99.90
12602;DHT22;30282;16.436;99.370;2022-12-08T10:26:24;29.40;99.90
12602;DHT22;30282;16.436;99.370;2022-12-08T10:28:53;29.40;99.90
12602;DHT22;30282;16.436;99.370;2022-12-08T10:31:30;29.30;99.90
12602;DHT22;30282;16.436;99.370;2022-12-08T10:34:15;29.30;99.90
12602;DHT22;30282;16.436;99.370;2022-12-08T10:36:50;29.30;99.90
12602;DHT22;30282;16.436;99.370;2022-12-08T10:39:33;29.10;99.90
12602;DHT22;30282;16.436;99.370;2022-12-08T10:42:17;29.00;99.90
12602;DHT22;30282;16.436;99.370;2022-12-08T10:44:54;28.90;99.90
12602;DHT22;30282;16.436;99.370;2022-12-08T10:47:29;28.90;99.90
12602;DHT22;30282;16.436;99.370;2022-12-08T10:50:19;28.80;99.90
12602;DHT22;30282;16.436;99.370;2022-12-08T10:52:59;28.80;99.90
12602;DHT22;30282;16.436;99.370;2022-12-08T10:55:30;28.80;99.90
12602;DHT22;30282;16.436;99.370;2022-12-08T10:58:23;28.80;99.90
12602;DHT22;30282;16.436;99.370;2022-12-08T11:00:55;28.70;99.90
12602;DHT22;30282;16.436;99.370;2022-12-08T11:03:33;28.70;99.90
12602;DHT22;30282;16.436;99.370;2022-12-08T11:06:14;28.70;99.90
12602;DHT22;30282;16.436;99.370;2022-12-08T11:08:56;28.50;99.90
12602;DHT22;30282;16.436;99.370;2022-12-08T11:11:39;28.40;99.90
12602;DHT22;30282;16.436;99.370;2022-12-08T11:14:17;28.40;99.90
12602;DHT22;30282;16.436;99.370;2022-12-08T11:16:47;28.40;99.90
12602;DHT22;30282;16.436;99.370;2022-12-08T11:19:19;28.30;99.90
12602;DHT22;30282;16.436;99.370;2022-12-08T11:21:48;28.20;99.90
12602;DHT22;30282;16.436;99.370;2022-12-08T11:24:25;28.10;99.90
12602;DHT22;30282;16.436;99.370;2022-12-08T11:26:58;28.10;99.90
12602;DHT22;30282;16.436;99.370;2022-12-08T11:29:30;28.00;99.90
12602;DHT22;30282;16.436;99.370;2022-12-08T11:32:02;27.90;99.90
12602;DHT22;30282;16.436;99.370;2022-12-08T11:34:36;27.90;99.90
12602;DHT22;30282;16.436;99.370;2022-12-08T11:37:12;27.90;99.90
12602;DHT22;30282;16.436;99.370;2022-12-08T11:39:48;27.80;99.90
12602;DHT22;30282;16.436;99.370;2022-12-08T11:42:21;27.80;99.90
12602;DHT22;30282;16.436;99.370;2022-12-08T11:44:54;27.90;99.90
12602;DHT22;30282;16.436;99.370;2022-12-08T11:47:27;27.90;99.90
12602;DHT22;30282;16.436;99.370;2022-12-08T11:50:10;27.90;99.90
12602;DHT22;30282;16.436;99.370;2022-12-08T11:52:45;27.80;99.90
12602;DHT22;30282;16.436;99.370;2022-12-08T11:55:28;27.90;99.90
12602;DHT22;30282;16.436;99.370;2022-12-08T11:58:11;27.90;99.90
12602;DHT22;30282;16.436;99.370;2022-12-08T12:00:50;27.90;99.90
12602;DHT22;30282;16.436;99.370;2022-12-08T12:03:25;27.80;99.90
12602;DHT22;30282;16.436;99.370;2022-12-08T12:06:12;27.70;99.90
12602;DHT22;30282;16.436;99.370;2022-12-08T12:08:51;27.70;99.90
12602;DHT22;30282;16.436;99.370;2022-12-08T12:11:27;27.60;99.90
12602;DHT22;30282;16.436;99.370;2022-12-08T12:14:25;27.60;99.90
12602;DHT22;30282;16.436;99.370;2022-12-08T12:17:05;27.50;99.90
12602;DHT22;30282;16.436;99.370;2022-12-08T12:19:36;27.40;99.90
12602;DHT22;30282;16.436;99.370;2022-12-08T12:22:13;27.40;99.90
12602;DHT22;30282;16.436;99.370;2022-12-08T12:24:44;27.20;99.90
12602;DHT22;30282;16.436;99.370;2022-12-08T12:27:23;27.20;99.90
12602;DHT22;30282;16.436;99.370;2022-12-08T12:29:57;27.20;99.90
12602;DHT22;30282;16.436;99.370;2022-12-08T12:32:40;27.20;99.90
12602;DHT22;30282;16.436;99.370;2022-12-08T12:35:16;27.20;99.90
12602;DHT22;30282;16.436;99.370;2022-12-08T12:37:49;27.20;99.90
12602;DHT22;30282;16.436;99.370;2022-12-08T12:40:20;27.20;99.90
12602;DHT22;30282;16.436;99.370;2022-12-08T12:45:48;27.00;99.90
12602;DHT22;30282;16.436;99.370;2022-12-08T12:48:23;27.00;99.90
12602;DHT22;30282;16.436;99.370;2022-12-08T12:50:52;27.00;99.90
12602;DHT22;30282;16.436;99.370;2022-12-08T12:53:49;27.00;99.90
12602;DHT22;30282;16.436;99.370;2022-12-08T12:56:46;27.00;99.90
12602;DHT22;30282;16.436;99.370;2022-12-08T13:02:22;27.00;99.90
12602;DHT22;30282;16.436;99.370;2022-12-08T13:05:01;26.90;99.90
12602;DHT22;30282;16.436;99.370;2022-12-08T13:07:33;26.90;99.90
12602;DHT22;30282;16.436;99.370;2022-12-08T13:10:17;26.80;99.90
12602;DHT22;30282;16.436;99.370;2022-12-08T13:13:03;26.70;99.90
12602;DHT22;30282;16.436;99.370;2022-12-08T13:15:36;26.70;99.90
12602;DHT22;30282;16.436;99.370;2022-12-08T13:18:15;26.60;99.90
12602;DHT22;30282;16.436;99.370;2022-12-08T13:20:49;26.70;99.90
12602;DHT22;30282;16.436;99.370;2022-12-08T13:23:42;26.60;99.90
12602;DHT22;30282;16.436;99.370;2022-12-08T13:26:18;26.60;99.90
12602;DHT22;30282;16.436;99.370;2022-12-08T13:29:15;26.60;99.90
12602;DHT22;30282;16.436;99.370;2022-12-08T13:31:46;26.60;99.90
12602;DHT22;30282;16.436;99.370;2022-12-08T13:34:18;26.60;99.90
12602;DHT22;30282;16.436;99.370;2022-12-08T13:36:54;26.60;99.90
12602;DHT22;30282;16.436;99.370;2022-12-08T13:39:27;26.60;99.90
12602;DHT22;30282;16.436;99.370;2022-12-08T13:42:05;26.60;99.90
12602;DHT22;30282;16.436;99.370;2022-12-08T13:44:39;26.60;99.90
12602;DHT22;30282;16.436;99.370;2022-12-08T13:47:21;26.50;99.90
12602;DHT22;30282;16.436;99.370;2022-12-08T13:50:03;26.30;99.90
12602;DHT22;30282;16.436;99.370;2022-12-08T13:52:36;26.30;99.90
12602;DHT22;30282;16.436;99.370;2022-12-08T13:55:15;26.40;99.90
12602;DHT22;30282;16.436;99.370;2022-12-08T13:57:50;26.30;99.90
12602;DHT22;30282;16.436;99.370;2022-12-08T14:00:30;26.30;99.90
12602;DHT22;30282;16.436;99.370;2022-12-08T14:06:36;26.20;99.90
12602;DHT22;30282;16.436;99.370;2022-12-08T14:09:09;26.20;99.90
12602;DHT22;30282;16.436;99.370;2022-12-08T14:11:41;26.20;99.90
12602;DHT22;30282;16.436;99.370;2022-12-08T14:14:17;26.20;99.90
12602;DHT22;30282;16.436;99.370;2022-12-08T14:16:51;26.30;99.90
12602;DHT22;30282;16.436;99.370;2022-12-08T14:19:22;26.30;99.90
12602;DHT22;30282;16.436;99.370;2022-12-08T14:21:56;26.30;99.90
12602;DHT22;30282;16.436;99.370;2022-12-08T14:24:28;26.30;99.90
12602;DHT22;30282;16.436;99.370;2022-12-08T14:26:59;26.20;99.90
12602;DHT22;30282;16.436;99.370;2022-12-08T14:29:48;26.10;99.90
12602;DHT22;30282;16.436;99.370;2022-12-08T14:32:23;26.10;99.90
12602;DHT22;30282;16.436;99.370;2022-12-08T14:34:55;26.10;99.90
12602;DHT22;30282;16.436;99.370;2022-12-08T14:37:26;26.00;99.90
12602;DHT22;30282;16.436;99.370;2022-12-08T14:39:59;25.80;99.90
12602;DHT22;30282;16.436;99.370;2022-12-08T14:42:29;25.70;99.90
12602;DHT22;30282;16.436;99.370;2022-12-08T14:45:03;25.70;99.90
12602;DHT22;30282;16.436;99.370;2022-12-08T14:47:34;25.60;99.90
12602;DHT22;30282;16.436;99.370;2022-12-08T14:50:35;25.60;99.90
12602;DHT22;30282;16.436;99.370;2022-12-08T14:52:54;25.50;99.90
12602;DHT22;30282;16.436;99.370;2022-12-08T14:55:23;25.50;99.90
12602;DHT22;30282;16.436;99.370;2022-12-08T14:57:52;25.60;99.90
12602;DHT22;30282;16.436;99.370;2022-12-08T15:00:24;25.60;99.90
12602;DHT22;30282;16.436;99.370;2022-12-08T15:02:55;25.50;99.90
12602;DHT22;30282;16.436;99.370;2022-12-08T15:05:28;25.60;99.90
12602;DHT22;30282;16.436;99.370;2022-12-08T15:08:01;25.50;99.90
12602;DHT22;30282;16.436;99.370;2022-12-08T15:10:32;25.60;99.90
12602;DHT22;30282;16.436;99.370;2022-12-08T15:13:06;25.60;99.90
12602;DHT22;30282;16.436;99.370;2022-12-08T15:15:50;25.60;99.90
12602;DHT22;30282;16.436;99.370;2022-12-08T15:18:26;25.60;99.90
12602;DHT22;30282;16.436;99.370;2022-12-08T15:21:01;25.60;99.90
12602;DHT22;30282;16.436;99.370;2022-12-08T15:23:33;25.60;99.90
12602;DHT22;30282;16.436;99.370;2022-12-08T15:26:05;25.60;99.90
12602;DHT22;30282;16.436;99.370;2022-12-08T15:28:34;25.60;99.90
12602;DHT22;30282;16.436;99.370;2022-12-08T15:31:05;25.60;99.90
12602;DHT22;30282;16.436;99.370;2022-12-08T15:33:34;25.60;99.90
12602;DHT22;30282;16.436;99.370;2022-12-08T15:36:03;25.50;99.90
12602;DHT22;30282;16.436;99.370;2022-12-08T15:38:32;25.50;99.90
12602;DHT22;30282;16.436;99.370;2022-12-08T15:41:01;25.50;99.90
12602;DHT22;30282;16.436;99.370;2022-12-08T15:43:31;25.50;99.90
12602;DHT22;30282;16.436;99.370;2022-12-08T15:46:01;25.50;99.90
12602;DHT22;30282;16.436;99.370;2022-12-08T15:48:32;25.50;99.90
12602;DHT22;30282;16.436;99.370;2022-12-08T15:51:01;25.50;99.90
12602;DHT22;30282;16.436;99.370;2022-12-08T15:53:30;25.40;99.90
12602;DHT22;30282;16.436;99.370;2022-12-08T15:56:03;25.40;99.90
12602;DHT22;30282;16.436;99.370;2022-12-08T15:58:36;25.40;99.90
12602;DHT22;30282;16.436;99.370;2022-12-08T16:01:06;25.30;99.90
12602;DHT22;30282;16.436;99.370;2022-12-08T16:03:37;25.20;99.90
12602;DHT22;30282;16.436;99.370;2022-12-08T16:06:11;25.10;99.90